sensor_id;sensor_type;location;lat;lon;timestamp;temperature;humidity
30399;DHT22;17195;50.838;7.214;2022-09-13T00:01:22;14.80;99.90
30399;DHT22;17195;50.838;7.214;2022-09-13T00:03:48;14.80;99.90
30399;DHT22;17195;50.838;7.214;2022-09-13T00:06:16;14.80;99.90
30399;DHT22;17195;50.838;7.214;2022-09-13T00:08:43;14.80;99.90
30399;DHT22;17195;50.838;7.214;2022-09-13T00:13:40;14.80;99.90
30399;DHT22;17195;50.838;7.214;2022-09-13T00:16:11;14.70;99.90
30399;DHT22;17195;50.838;7.214;2022-09-13T00:18:37;14.70;99.90
30399;DHT22;17195;50.838;7.214;2022-09-13T00:21:04;14.70;99.90
30399;DHT22;17195;50.838;7.214;2022-09-13T00:23:30;14.60;99.90
30399;DHT22;17195;50.838;7.214;2022-09-13T00:26:09;14.60;99.90
30399;DHT22;17195;50.838;7.214;2022-09-13T00:28:35;14.60;99.90
30399;DHT22;17195;50.838;7.214;2022-09-13T00:31:03;14.60;99.90
30399;DHT22;17195;50.838;7.214;2022-09-13T00:33:29;14.50;99.90
30399;DHT22;17195;50.838;7.214;2022-09-13T00:35:55;14.50;99.90
30399;DHT22;17195;50.838;7.214;2022-09-13T00:38:21;14.50;99.90
30399;DHT22;17195;50.838;7.214;2022-09-13T00:40:47;14.50;99.90
30399;DHT22;17195;50.838;7.214;2022-09-13T00:43:18;14.50;99.90
30399;DHT22;17195;50.838;7.214;2022-09-13T00:45:45;14.50;99.90
30399;DHT22;17195;50.838;7.214;2022-09-13T00:48:19;14.50;99.90
30399;DHT22;17195;50.838;7.214;2022-09-13T00:50:55;14.40;99.90
30399;DHT22;17195;50.838;7.214;2022-09-13T00:53:32;14.40;99.90
30399;DHT22;17195;50.838;7.214;2022-09-13T00:58:38;14.40;99.90
30399;DHT22;17195;50.838;7.214;2022-09-13T01:01:08;14.40;99.90
30399;DHT22;17195;50.838;7.214;2022-09-13T01:03:35;14.40;99.90
30399;DHT22;17195;50.838;7.214;2022-09-13T01:06:12;14.40;99.90
30399;DHT22;17195;50.838;7.214;2022-09-13T01:08:41;14.40;99.90
30399;DHT22;17195;50.838;7.214;2022-09-13T01:11:13;14.30;99.90
30399;DHT22;17195;50.838;7.214;2022-09-13T01:13:41;14.30;99.90
30399;DHT22;17195;50.838;7.214;2022-09-13T01:16:07;14.30;99.90
30399;DHT22;17195;50.838;7.214;2022-09-13T01:18:33;14.30;99.90
30399;DHT22;17195;50.838;7.214;2022-09-13T01:37:50;14.20;99.90
30399;DHT22;17195;50.838;7.214;2022-09-13T01:40:48;14.30;99.90
30399;DHT22;17195;50.838;7.214;2022-09-13T01:46:24;14.20;99.90
30399;DHT22;17195;50.838;7.214;2022-09-13T01:48:55;14.20;99.90
30399;DHT22;17195;50.838;7.214;2022-09-13T01:51:33;14.20;99.90
30399;DHT22;17195;50.838;7.214;2022-09-13T01:54:11;14.20;99.90
30399;DHT22;17195;50.838;7.214;2022-09-13T01:59:20;14.30;99.90
30399;DHT22;17195;50.838;7.214;2022-09-13T02:02:15;14.20;99.90
30399;DHT22;17195;50.838;7.214;2022-09-13T02:04:45;14.30;99.90
30399;DHT22;17195;50.838;7.214;2022-09-13T02:07:24;14.40;99.90
30399;DHT22;17195;50.838;7.214;2022-09-13T02:09:57;14.40;99.90
30399;DHT22;17195;50.838;7.214;2022-09-13T02:12:25;14.40;99.90
30399;DHT22;17195;50.838;7.214;2022-09-13T02:15:03;14.40;99.90
30399;DHT22;17195;50.838;7.214;2022-09-13T02:17:37;14.40;99.90
30399;DHT22;17195;50.838;7.214;2022-09-13T02:20:26;14.40;99.90
30399;DHT22;17195;50.838;7.214;2022-09-13T02:22:57;14.40;99.90
30399;DHT22;17195;50.838;7.214;2022-09-13T02:25:25;14.40;99.90
30399;DHT22;17195;50.838;7.214;2022-09-13T02:27:55;14.40;99.90
30399;DHT22;17195;50.838;7.214;2022-09-13T02:30:23;14.40;99.90
30399;DHT22;17195;50.838;7.214;2022-09-13T02:32:54;14.40;99.90
30399;DHT22;17195;50.838;7.214;2022-09-13T02:35:36;14.40;99.90
30399;DHT22;17195;50.838;7.214;2022-09-13T02:38:07;14.50;99.90
30399;DHT22;17195;50.838;7.214;2022-09-13T02:41:57;14.50;99.90
30399;DHT22;17195;50.838;7.214;2022-09-13T02:44:09;14.50;99.90
30399;DHT22;17195;50.838;7.214;2022-09-13T02:49:16;14.60;99.90
30399;DHT22;17195;50.838;7.214;2022-09-13T02:52:08;14.60;99.90
30399;DHT22;17195;50.838;7.214;2022-09-13T02:54:52;14.60;99.90
30399;DHT22;17195;50.838;7.214;2022-09-13T02:57:28;14.70;99.90
30399;DHT22;17195;50.838;7.214;2022-09-13T02:59:56;14.70;99.90
30399;DHT22;17195;50.838;7.214;2022-09-13T03:02:26;14.70;99.90
30399;DHT22;17195;50.838;7.214;2022-09-13T03:04:53;14.70;99.90
30399;DHT22;17195;50.838;7.214;2022-09-13T03:07:18;14.80;99.90
30399;DHT22;17195;50.838;7.214;2022-09-13T03:09:52;14.80;99.90
30399;DHT22;17195;50.838;7.214;2022-09-13T03:24:32;14.90;99.90
30399;DHT22;17195;50.838;7.214;2022-09-13T03:40:55;15.00;99.90
30399;DHT22;17195;50.838;7.214;2022-09-13T03:43:31;15.00;99.90
30399;DHT22;17195;50.838;7.214;2022-09-13T03:46:10;15.10;99.90
30399;DHT22;17195;50.838;7.214;2022-09-13T03:48:38;15.00;99.90
30399;DHT22;17195;50.838;7.214;2022-09-13T03:51:05;15.10;99.90
30399;DHT22;17195;50.838;7.214;2022-09-13T03:53:34;15.10;99.90
30399;DHT22;17195;50.838;7.214;2022-09-13T03:56:13;15.10;99.90
30399;DHT22;17195;50.838;7.214;2022-09-13T03:58:39;15.10;99.90
30399;DHT22;17195;50.838;7.214;2022-09-13T04:01:05;15.10;99.90
30399;DHT22;17195;50.838;7.214;2022-09-13T04:03:31;15.10;99.90
30399;DHT22;17195;50.838;7.214;2022-09-13T04:05:56;15.10;99.90
30399;DHT22;17195;50.838;7.214;2022-09-13T04:08:22;15.10;99.90
30399;DHT22;17195;50.838;7.214;2022-09-13T04:10:49;15.10;99.90
30399;DHT22;17195;50.838;7.214;2022-09-13T04:13:15;15.10;99.90
30399;DHT22;17195;50.838;7.214;2022-09-13T04:15:41;15.10;99.90
30399;DHT22;17195;50.838;7.214;2022-09-13T04:18:07;15.10;99.90
30399;DHT22;17195;50.838;7.214;2022-09-13T04:20:33;15.10;99.90
30399;DHT22;17195;50.838;7.214;2022-09-13T04:23:00;15.10;99.90
30399;DHT22;17195;50.838;7.214;2022-09-13T04:25:25;15.20;99.90
30399;DHT22;17195;50.838;7.214;2022-09-13T04:27:55;15.10;99.90
30399;DHT22;17195;50.838;7.214;2022-09-13T04:30:24;15.20;99.90
30399;DHT22;17195;50.838;7.214;2022-09-13T04:32:50;15.20;99.90
30399;DHT22;17195;50.838;7.214;2022-09-13T04:35:16;15.20;99.90
30399;DHT22;17195;50.838;7.214;2022-09-13T04:37:44;15.30;99.90
30399;DHT22;17195;50.838;7.214;2022-09-13T04:40:11;15.30;99.90
30399;DHT22;17195;50.838;7.214;2022-09-13T04:42:36;15.40;99.90
30399;DHT22;17195;50.838;7.214;2022-09-13T04:45:02;15.40;99.90
30399;DHT22;17195;50.838;7.214;2022-09-13T04:47:28;15.40;99.90
30399;DHT22;17195;50.838;7.214;2022-09-13T04:49:54;15.40;99.90
30399;DHT22;17195;50.838;7.214;2022-09-13T04:52:19;15.40;99.90
30399;DHT22;17195;50.838;7.214;2022-09-13T04:54:45;15.40;99.90
30399;DHT22;17195;50.838;7.214;2022-09-13T04:57:13;15.40;99.90
30399;DHT22;17195;50.838;7.214;2022-09-13T04:59:39;15.40;99.90
30399;DHT22;17195;50.838;7.214;2022-09-13T05:02:04;15.40;99.90
30399;DHT22;17195;50.838;7.214;2022-09-13T05:04:30;15.40;99.90
30399;DHT22;17195;50.838;7.214;2022-09-13T05:06:55;15.40;99.90
30399;DHT22;17195;50.838;7.214;2022-09-13T05:09:23;15.40;99.90
30399;DHT22;17195;50.838;7.214;2022-09-13T05:11:48;15.40;99.90
30399;DHT22;17195;50.838;7.214;2022-09-13T05:14:14;15.40;99.90
30399;DHT22;17195;50.838;7.214;2022-09-13T05:16:39;15.40;99.90
30399;DHT22;17195;50.838;7.214;2022-09-13T05:19:05;15.40;99.90
30399;DHT22;17195;50.838;7.214;2022-09-13T05:21:31;15.40;99.90
30399;DHT22;17195;50.838;7.214;2022-09-13T05:23:57;15.50;99.90
30399;DHT22;17195;50.838;7.214;2022-09-13T05:26:25;15.50;99.90
30399;DHT22;17195;50.838;7.214;2022-09-13T05:28:51;15.50;99.90
30399;DHT22;17195;50.838;7.214;2022-09-13T05:31:24;15.50;99.90
30399;DHT22;17195;50.838;7.214;2022-09-13T05:33:56;15.60;99.90
30399;DHT22;17195;50.838;7.214;2022-09-13T05:36:23;15.60;99.90
30399;DHT22;17195;50.838;7.214;2022-09-13T05:38:49;15.60;99.90
30399;DHT22;17195;50.838;7.214;2022-09-13T05:41:15;15.70;99.90
30399;DHT22;17195;50.838;7.214;2022-09-13T05:43:41;15.60;99.90
30399;DHT22;17195;50.838;7.214;2022-09-13T05:46:13;15.70;99.90
30399;DHT22;17195;50.838;7.214;2022-09-13T05:48:39;15.70;99.90
30399;DHT22;17195;50.838;7.214;2022-09-13T05:53:35;15.70;99.90
30399;DHT22;17195;50.838;7.214;2022-09-13T05:56:04;15.80;99.90
30399;DHT22;17195;50.838;7.214;2022-09-13T05:58:29;15.80;99.90
30399;DHT22;17195;50.838;7.214;2022-09-13T06:00:56;15.80;99.90
30399;DHT22;17195;50.838;7.214;2022-09-13T06:03:22;15.80;99.90
30399;DHT22;17195;50.838;7.214;2022-09-13T06:05:49;15.90;99.90
30399;DHT22;17195;50.838;7.214;2022-09-13T06:08:15;15.90;99.90
30399;DHT22;17195;50.838;7.214;2022-09-13T06:10:41;15.90;99.90
30399;DHT22;17195;50.838;7.214;2022-09-13T06:13:06;15.90;99.90
30399;DHT22;17195;50.838;7.214;2022-09-13T06:15:32;16.00;99.90
30399;DHT22;17195;50.838;7.214;2022-09-13T06:17:57;16.10;99.90
30399;DHT22;17195;50.838;7.214;2022-09-13T06:20:23;16.10;99.90
30399;DHT22;17195;50.838;7.214;2022-09-13T06:22:49;16.20;99.90
30399;DHT22;17195;50.838;7.214;2022-09-13T06:25:15;16.30;99.90
30399;DHT22;17195;50.838;7.214;2022-09-13T06:27:41;16.40;99.90
30399;DHT22;17195;50.838;7.214;2022-09-13T06:30:07;16.50;99.90
30399;DHT22;17195;50.838;7.214;2022-09-13T06:32:34;16.60;99.90
30399;DHT22;17195;50.838;7.214;2022-09-13T06:34:59;16.60;99.90
30399;DHT22;17195;50.838;7.214;2022-09-13T06:37:25;16.60;99.90
30399;DHT22;17195;50.838;7.214;2022-09-13T06:39:50;16.70;99.90
30399;DHT22;17195;50.838;7.214;2022-09-13T06:42:16;16.70;99.90
30399;DHT22;17195;50.838;7.214;2022-09-13T06:44:42;16.90;99.90
30399;DHT22;17195;50.838;7.214;2022-09-13T06:47:07;16.90;99.90
30399;DHT22;17195;50.838;7.214;2022-09-13T06:49:34;17.10;99.90
30399;DHT22;17195;50.838;7.214;2022-09-13T06:51:59;17.20;99.90
30399;DHT22;17195;50.838;7.214;2022-09-13T06:54:25;17.20;99.90
30399;DHT22;17195;50.838;7.214;2022-09-13T06:56:50;17.30;99.90
30399;DHT22;17195;50.838;7.214;2022-09-13T06:59:16;17.40;99.90
30399;DHT22;17195;50.838;7.214;2022-09-13T07:01:42;17.50;99.90
30399;DHT22;17195;50.838;7.214;2022-09-13T07:04:19;17.50;99.90
30399;DHT22;17195;50.838;7.214;2022-09-13T07:06:46;17.50;99.90
30399;DHT22;17195;50.838;7.214;2022-09-13T07:09:18;17.60;99.90
30399;DHT22;17195;50.838;7.214;2022-09-13T07:11:44;17.70;99.90
30399;DHT22;17195;50.838;7.214;2022-09-13T07:14:13;17.70;99.90
30399;DHT22;17195;50.838;7.214;2022-09-13T07:16:39;17.90;99.90
30399;DHT22;17195;50.838;7.214;2022-09-13T07:19:09;18.00;99.90
30399;DHT22;17195;50.838;7.214;2022-09-13T07:21:36;18.10;99.90
30399;DHT22;17195;50.838;7.214;2022-09-13T07:24:02;18.30;99.90
30399;DHT22;17195;50.838;7.214;2022-09-13T07:26:28;18.40;99.90
30399;DHT22;17195;50.838;7.214;2022-09-13T07:28:57;18.50;99.90
30399;DHT22;17195;50.838;7.214;2022-09-13T07:31:46;18.60;99.90
30399;DHT22;17195;50.838;7.214;2022-09-13T07:34:16;18.70;99.90
30399;DHT22;17195;50.838;7.214;2022-09-13T07:36:42;18.80;99.90
30399;DHT22;17195;50.838;7.214;2022-09-13T07:39:09;18.90;99.90
30399;DHT22;17195;50.838;7.214;2022-09-13T07:41:35;19.00;99.90
30399;DHT22;17195;50.838;7.214;2022-09-13T07:44:02;19.10;99.90
30399;DHT22;17195;50.838;7.214;2022-09-13T07:46:30;19.30;99.90
30399;DHT22;17195;50.838;7.214;2022-09-13T07:48:57;19.40;99.90
30399;DHT22;17195;50.838;7.214;2022-09-13T07:51:25;19.60;99.90
30399;DHT22;17195;50.838;7.214;2022-09-13T07:53:53;19.70;99.90
30399;DHT22;17195;50.838;7.214;2022-09-13T07:56:22;19.90;99.90
30399;DHT22;17195;50.838;7.214;2022-09-13T07:58:51;20.00;99.90
30399;DHT22;17195;50.838;7.214;2022-09-13T08:01:26;20.20;99.90
30399;DHT22;17195;50.838;7.214;2022-09-13T08:03:59;20.30;99.90
30399;DHT22;17195;50.838;7.214;2022-09-13T08:06:27;20.40;99.90
30399;DHT22;17195;50.838;7.214;2022-09-13T08:08:53;20.40;99.90
30399;DHT22;17195;50.838;7.214;2022-09-13T08:11:48;20.50;99.90
30399;DHT22;17195;50.838;7.214;2022-09-13T08:14:17;20.60;99.90
30399;DHT22;17195;50.838;7.214;2022-09-13T08:16:43;20.70;99.90
30399;DHT22;17195;50.838;7.214;2022-09-13T08:19:15;20.90;99.90
30399;DHT22;17195;50.838;7.214;2022-09-13T08:21:41;21.00;99.90
30399;DHT22;17195;50.838;7.214;2022-09-13T08:24:15;21.10;99.90
30399;DHT22;17195;50.838;7.214;2022-09-13T08:26:41;21.10;99.90
30399;DHT22;17195;50.838;7.214;2022-09-13T08:29:08;21.20;99.90
30399;DHT22;17195;50.838;7.214;2022-09-13T08:31:34;21.30;99.90
30399;DHT22;17195;50.838;7.214;2022-09-13T08:34:00;21.40;99.90
30399;DHT22;17195;50.838;7.214;2022-09-13T08:36:27;21.50;99.90
30399;DHT22;17195;50.838;7.214;2022-09-13T08:38:58;21.70;99.90
30399;DHT22;17195;50.838;7.214;2022-09-13T08:44:28;22.00;99.90
30399;DHT22;17195;50.838;7.214;2022-09-13T08:49:42;22.20;99.90
30399;DHT22;17195;50.838;7.214;2022-09-13T08:54:40;22.50;99.90
30399;DHT22;17195;50.838;7.214;2022-09-13T08:57:16;22.70;99.90
30399;DHT22;17195;50.838;7.214;2022-09-13T09:05:49;23.00;99.90
30399;DHT22;17195;50.838;7.214;2022-09-13T09:08:36;23.00;99.90
30399;DHT22;17195;50.838;7.214;2022-09-13T09:11:09;23.00;99.90
30399;DHT22;17195;50.838;7.214;2022-09-13T09:13:59;22.90;99.90
30399;DHT22;17195;50.838;7.214;2022-09-13T09:16:42;23.00;99.90
30399;DHT22;17195;50.838;7.214;2022-09-13T09:19:18;23.10;99.90
30399;DHT22;17195;50.838;7.214;2022-09-13T09:21:49;23.10;99.90
30399;DHT22;17195;50.838;7.214;2022-09-13T09:24:20;23.30;99.90
30399;DHT22;17195;50.838;7.214;2022-09-13T09:26:46;23.40;99.90
30399;DHT22;17195;50.838;7.214;2022-09-13T09:29:20;23.60;99.90
30399;DHT22;17195;50.838;7.214;2022-09-13T09:31:55;23.70;99.90
30399;DHT22;17195;50.838;7.214;2022-09-13T09:37:07;23.90;99.90
30399;DHT22;17195;50.838;7.214;2022-09-13T09:39:37;24.00;99.90
30399;DHT22;17195;50.838;7.214;2022-09-13T09:42:12;24.10;99.90
30399;DHT22;17195;50.838;7.214;2022-09-13T09:44:39;24.10;99.90
30399;DHT22;17195;50.838;7.214;2022-09-13T09:47:13;24.20;99.90
30399;DHT22;17195;50.838;7.214;2022-09-13T09:55:27;24.40;99.90
30399;DHT22;17195;50.838;7.214;2022-09-13T10:00:27;24.30;99.90
30399;DHT22;17195;50.838;7.214;2022-09-13T10:03:16;24.20;99.90
30399;DHT22;17195;50.838;7.214;2022-09-13T10:05:42;24.40;99.90
30399;DHT22;17195;50.838;7.214;2022-09-13T10:08:33;24.50;99.90
30399;DHT22;17195;50.838;7.214;2022-09-13T10:10:59;24.50;99.90
30399;DHT22;17195;50.838;7.214;2022-09-13T10:13:26;24.60;99.90
30399;DHT22;17195;50.838;7.214;2022-09-13T10:15:56;24.50;99.90
30399;DHT22;17195;50.838;7.214;2022-09-13T10:18:24;24.50;99.90
30399;DHT22;17195;50.838;7.214;2022-09-13T10:21:23;24.60;99.90
30399;DHT22;17195;50.838;7.214;2022-09-13T10:23:49;24.70;99.90
30399;DHT22;17195;50.838;7.214;2022-09-13T10:26:20;24.60;99.90
30399;DHT22;17195;50.838;7.214;2022-09-13T10:29:07;24.70;99.90
30399;DHT22;17195;50.838;7.214;2022-09-13T10:31:36;24.80;99.90
30399;DHT22;17195;50.838;7.214;2022-09-13T10:34:05;24.80;99.90
30399;DHT22;17195;50.838;7.214;2022-09-13T10:36:33;24.80;99.90
30399;DHT22;17195;50.838;7.214;2022-09-13T10:39:03;24.80;99.90
30399;DHT22;17195;50.838;7.214;2022-09-13T10:41:32;24.90;99.90
30399;DHT22;17195;50.838;7.214;2022-09-13T10:44:01;25.00;99.90
30399;DHT22;17195;50.838;7.214;2022-09-13T10:46:30;25.10;99.90
30399;DHT22;17195;50.838;7.214;2022-09-13T10:48:57;25.20;99.90
30399;DHT22;17195;50.838;7.214;2022-09-13T10:56:32;25.60;99.90
30399;DHT22;17195;50.838;7.214;2022-09-13T11:30:08;27.20;96.40
30399;DHT22;17195;50.838;7.214;2022-09-13T11:32:54;27.30;95.70
30399;DHT22;17195;50.838;7.214;2022-09-13T11:35:48;27.40;95.40
30399;DHT22;17195;50.838;7.214;2022-09-13T11:38:35;27.40;95.40
30399;DHT22;17195;50.838;7.214;2022-09-13T11:50:41;28.00;93.60
30399;DHT22;17195;50.838;7.214;2022-09-13T11:55:50;28.30;92.60
30399;DHT22;17195;50.838;7.214;2022-09-13T11:58:22;28.20;92.50
30399;DHT22;17195;50.838;7.214;2022-09-13T12:00:53;28.10;93.30
30399;DHT22;17195;50.838;7.214;2022-09-13T12:03:25;28.00;92.90
30399;DHT22;17195;50.838;7.214;2022-09-13T12:06:34;28.10;92.80
30399;DHT22;17195;50.838;7.214;2022-09-13T12:09:03;28.10;92.40
30399;DHT22;17195;50.838;7.214;2022-09-13T12:11:37;28.20;92.20
30399;DHT22;17195;50.838;7.214;2022-09-13T12:14:06;28.10;91.90
30399;DHT22;17195;50.838;7.214;2022-09-13T12:16:42;28.20;92.00
30399;DHT22;17195;50.838;7.214;2022-09-13T12:19:25;28.40;92.50
30399;DHT22;17195;50.838;7.214;2022-09-13T12:21:53;28.50;91.30
30399;DHT22;17195;50.838;7.214;2022-09-13T12:24:29;28.60;90.90
30399;DHT22;17195;50.838;7.214;2022-09-13T12:27:02;28.60;91.40
30399;DHT22;17195;50.838;7.214;2022-09-13T12:29:49;28.60;91.20
30399;DHT22;17195;50.838;7.214;2022-09-13T12:32:18;28.40;90.90
30399;DHT22;17195;50.838;7.214;2022-09-13T12:35:16;28.40;90.50
30399;DHT22;17195;50.838;7.214;2022-09-13T12:38:24;28.10;92.10
30399;DHT22;17195;50.838;7.214;2022-09-13T12:47:00;27.90;90.60
30399;DHT22;17195;50.838;7.214;2022-09-13T12:52:22;28.10;90.90
30399;DHT22;17195;50.838;7.214;2022-09-13T12:55:27;28.20;90.20
30399;DHT22;17195;50.838;7.214;2022-09-13T13:00:47;28.00;90.30
30399;DHT22;17195;50.838;7.214;2022-09-13T13:03:16;28.10;90.30
30399;DHT22;17195;50.838;7.214;2022-09-13T13:05:54;28.30;90.10
30399;DHT22;17195;50.838;7.214;2022-09-13T13:13:37;28.90;89.80
30399;DHT22;17195;50.838;7.214;2022-09-13T13:18:44;29.40;87.20
30399;DHT22;17195;50.838;7.214;2022-09-13T13:21:26;29.60;87.10
30399;DHT22;17195;50.838;7.214;2022-09-13T13:26:56;29.90;84.70
30399;DHT22;17195;50.838;7.214;2022-09-13T13:29:27;29.80;84.10
30399;DHT22;17195;50.838;7.214;2022-09-13T13:34:42;30.00;83.50
30399;DHT22;17195;50.838;7.214;2022-09-13T13:39:42;30.00;82.90
30399;DHT22;17195;50.838;7.214;2022-09-13T13:42:21;30.10;83.20
30399;DHT22;17195;50.838;7.214;2022-09-13T13:49:49;30.00;82.80
30399;DHT22;17195;50.838;7.214;2022-09-13T13:57:35;30.20;82.20
30399;DHT22;17195;50.838;7.214;2022-09-13T14:00:19;30.20;81.80
30399;DHT22;17195;50.838;7.214;2022-09-13T14:05:33;30.30;80.70
30399;DHT22;17195;50.838;7.214;2022-09-13T14:13:36;30.10;80.10
30399;DHT22;17195;50.838;7.214;2022-09-13T14:21:33;30.80;79.40
30399;DHT22;17195;50.838;7.214;2022-09-13T14:24:15;31.20;76.90
30399;DHT22;17195;50.838;7.214;2022-09-13T14:26:46;31.40;77.40
30399;DHT22;17195;50.838;7.214;2022-09-13T14:29:19;31.60;76.30
30399;DHT22;17195;50.838;7.214;2022-09-13T14:32:10;31.70;76.90
30399;DHT22;17195;50.838;7.214;2022-09-13T14:34:36;31.80;74.00
30399;DHT22;17195;50.838;7.214;2022-09-13T14:37:16;31.60;74.60
30399;DHT22;17195;50.838;7.214;2022-09-13T14:40:00;31.70;74.70
30399;DHT22;17195;50.838;7.214;2022-09-13T14:42:37;31.20;72.90
30399;DHT22;17195;50.838;7.214;2022-09-13T14:45:03;31.40;74.20
30399;DHT22;17195;50.838;7.214;2022-09-13T14:50:16;31.30;75.10
30399;DHT22;17195;50.838;7.214;2022-09-13T14:52:56;31.50;74.60
30399;DHT22;17195;50.838;7.214;2022-09-13T14:55:28;31.60;75.20
30399;DHT22;17195;50.838;7.214;2022-09-13T14:58:03;31.80;74.40
30399;DHT22;17195;50.838;7.214;2022-09-13T15:00:32;31.90;75.20
30399;DHT22;17195;50.838;7.214;2022-09-13T15:03:11;32.10;75.00
30399;DHT22;17195;50.838;7.214;2022-09-13T15:05:38;32.00;73.90
30399;DHT22;17195;50.838;7.214;2022-09-13T15:08:27;31.50;74.70
30399;DHT22;17195;50.838;7.214;2022-09-13T15:11:02;30.90;75.20
30399;DHT22;17195;50.838;7.214;2022-09-13T15:13:29;30.50;76.80
30399;DHT22;17195;50.838;7.214;2022-09-13T15:15:55;30.40;77.90
30399;DHT22;17195;50.838;7.214;2022-09-13T15:21:15;30.10;76.60
30399;DHT22;17195;50.838;7.214;2022-09-13T15:23:47;29.90;77.00
30399;DHT22;17195;50.838;7.214;2022-09-13T15:26:24;29.80;77.40
30399;DHT22;17195;50.838;7.214;2022-09-13T15:28:58;29.70;77.60
30399;DHT22;17195;50.838;7.214;2022-09-13T15:31:34;29.60;78.10
30399;DHT22;17195;50.838;7.214;2022-09-13T15:37:08;29.00;78.90
30399;DHT22;17195;50.838;7.214;2022-09-13T15:40:09;28.70;80.80
30399;DHT22;17195;50.838;7.214;2022-09-13T15:42:36;28.40;82.10
30399;DHT22;17195;50.838;7.214;2022-09-13T15:45:01;28.10;83.50
30399;DHT22;17195;50.838;7.214;2022-09-13T15:47:27;27.80;84.60
30399;DHT22;17195;50.838;7.214;2022-09-13T15:49:52;27.60;85.50
30399;DHT22;17195;50.838;7.214;2022-09-13T15:52:19;27.40;86.50
30399;DHT22;17195;50.838;7.214;2022-09-13T15:54:49;27.20;87.20
30399;DHT22;17195;50.838;7.214;2022-09-13T15:57:26;27.00;87.80
30399;DHT22;17195;50.838;7.214;2022-09-13T15:59:52;26.80;88.80
30399;DHT22;17195;50.838;7.214;2022-09-13T16:02:25;26.60;89.30
30399;DHT22;17195;50.838;7.214;2022-09-13T16:04:51;26.40;90.00
30399;DHT22;17195;50.838;7.214;2022-09-13T16:07:17;26.30;90.40
30399;DHT22;17195;50.838;7.214;2022-09-13T16:09:44;26.10;90.50
30399;DHT22;17195;50.838;7.214;2022-09-13T16:12:09;25.90;90.90
30399;DHT22;17195;50.838;7.214;2022-09-13T16:14:35;25.70;91.30
30399;DHT22;17195;50.838;7.214;2022-09-13T16:17:05;25.60;91.70
30399;DHT22;17195;50.838;7.214;2022-09-13T16:19:31;25.60;92.20
30399;DHT22;17195;50.838;7.214;2022-09-13T16:21:56;25.40;92.70
30399;DHT22;17195;50.838;7.214;2022-09-13T16:24:22;25.30;93.10
30399;DHT22;17195;50.838;7.214;2022-09-13T16:26:47;25.20;93.70
30399;DHT22;17195;50.838;7.214;2022-09-13T16:29:13;25.00;94.20
30399;DHT22;17195;50.838;7.214;2022-09-13T16:31:39;24.80;94.90
30399;DHT22;17195;50.838;7.214;2022-09-13T16:34:05;24.60;96.30
30399;DHT22;17195;50.838;7.214;2022-09-13T16:36:31;24.50;97.40
30399;DHT22;17195;50.838;7.214;2022-09-13T16:38:58;24.30;98.10
30399;DHT22;17195;50.838;7.214;2022-09-13T16:41:24;24.20;98.20
30399;DHT22;17195;50.838;7.214;2022-09-13T16:43:50;24.00;99.60
30399;DHT22;17195;50.838;7.214;2022-09-13T16:46:16;23.80;99.90
30399;DHT22;17195;50.838;7.214;2022-09-13T16:48:42;23.70;99.90
30399;DHT22;17195;50.838;7.214;2022-09-13T16:51:10;23.50;99.90
30399;DHT22;17195;50.838;7.214;2022-09-13T16:53:40;23.40;99.90
30399;DHT22;17195;50.838;7.214;2022-09-13T16:56:08;23.20;99.90
30399;DHT22;17195;50.838;7.214;2022-09-13T16:58:38;23.10;99.90
30399;DHT22;17195;50.838;7.214;2022-09-13T17:01:05;22.90;99.90
30399;DHT22;17195;50.838;7.214;2022-09-13T17:03:31;22.80;99.90
30399;DHT22;17195;50.838;7.214;2022-09-13T17:05:59;22.70;99.90
30399;DHT22;17195;50.838;7.214;2022-09-13T17:08:26;22.60;99.90
30399;DHT22;17195;50.838;7.214;2022-09-13T17:10:51;22.50;99.90
30399;DHT22;17195;50.838;7.214;2022-09-13T17:13:17;22.40;99.90
30399;DHT22;17195;50.838;7.214;2022-09-13T17:15:43;22.20;99.90
30399;DHT22;17195;50.838;7.214;2022-09-13T17:18:09;22.10;99.90
30399;DHT22;17195;50.838;7.214;2022-09-13T17:20:34;22.00;99.90
30399;DHT22;17195;50.838;7.214;2022-09-13T17:23:00;21.90;99.90
30399;DHT22;17195;50.838;7.214;2022-09-13T17:25:26;21.80;99.90
30399;DHT22;17195;50.838;7.214;2022-09-13T17:27:51;21.70;99.90
30399;DHT22;17195;50.838;7.214;2022-09-13T17:30:17;21.70;99.90
30399;DHT22;17195;50.838;7.214;2022-09-13T17:32:42;21.60;99.90
30399;DHT22;17195;50.838;7.214;2022-09-13T17:35:08;21.50;99.90
30399;DHT22;17195;50.838;7.214;2022-09-13T17:37:36;21.50;99.90
30399;DHT22;17195;50.838;7.214;2022-09-13T17:40:01;21.40;99.90
30399;DHT22;17195;50.838;7.214;2022-09-13T17:42:27;21.40;99.90
30399;DHT22;17195;50.838;7.214;2022-09-13T17:44:52;21.30;99.90
30399;DHT22;17195;50.838;7.214;2022-09-13T17:47:18;21.30;99.90
30399;DHT22;17195;50.838;7.214;2022-09-13T17:49:44;21.30;99.90
30399;DHT22;17195;50.838;7.214;2022-09-13T17:52:10;21.20;99.90
30399;DHT22;17195;50.838;7.214;2022-09-13T17:54:36;21.20;99.90
30399;DHT22;17195;50.838;7.214;2022-09-13T17:57:01;21.10;99.90
30399;DHT22;17195;50.838;7.214;2022-09-13T17:59:27;21.10;99.90
30399;DHT22;17195;50.838;7.214;2022-09-13T18:01:53;21.00;99.90
30399;DHT22;17195;50.838;7.214;2022-09-13T18:04:21;21.10;99.90
30399;DHT22;17195;50.838;7.214;2022-09-13T18:06:48;20.90;99.90
30399;DHT22;17195;50.838;7.214;2022-09-13T18:09:14;20.90;99.90
30399;DHT22;17195;50.838;7.214;2022-09-13T18:11:41;20.80;99.90
30399;DHT22;17195;50.838;7.214;2022-09-13T18:14:13;20.80;99.90
30399;DHT22;17195;50.838;7.214;2022-09-13T18:16:39;20.80;99.90
30399;DHT22;17195;50.838;7.214;2022-09-13T18:19:04;20.70;99.90
30399;DHT22;17195;50.838;7.214;2022-09-13T18:21:30;20.70;99.90
30399;DHT22;17195;50.838;7.214;2022-09-13T18:23:58;20.60;99.90
30399;DHT22;17195;50.838;7.214;2022-09-13T18:26:25;20.60;99.90
30399;DHT22;17195;50.838;7.214;2022-09-13T18:28:58;20.60;99.90
30399;DHT22;17195;50.838;7.214;2022-09-13T18:31:27;20.50;99.90
30399;DHT22;17195;50.838;7.214;2022-09-13T18:33:54;20.50;99.90
30399;DHT22;17195;50.838;7.214;2022-09-13T18:36:21;20.40;99.90
30399;DHT22;17195;50.838;7.214;2022-09-13T18:38:47;20.40;99.90
30399;DHT22;17195;50.838;7.214;2022-09-13T18:41:21;20.40;99.90
30399;DHT22;17195;50.838;7.214;2022-09-13T18:43:49;20.30;99.90
30399;DHT22;17195;50.838;7.214;2022-09-13T18:46:17;20.30;99.90
30399;DHT22;17195;50.838;7.214;2022-09-13T18:48:45;20.20;99.90
30399;DHT22;17195;50.838;7.214;2022-09-13T18:51:14;20.20;99.90
30399;DHT22;17195;50.838;7.214;2022-09-13T18:53:40;20.20;99.90
30399;DHT22;17195;50.838;7.214;2022-09-13T18:56:08;20.20;99.90
30399;DHT22;17195;50.838;7.214;2022-09-13T18:58:37;20.20;99.90
30399;DHT22;17195;50.838;7.214;2022-09-13T19:01:11;20.20;99.90
30399;DHT22;17195;50.838;7.214;2022-09-13T19:03:38;20.10;99.90